Aviation Digital Data Service (ADDS)

Output produced by METARs form (1753 UTC 24 March 2017)
found at http://www.aviationweather.gov/adds/metars/
 
UBBB 241730Z 06003KT 9999 OVC017 06/03 Q1028 R88/D NOSIG
TAF UBBB 241706Z 2418/2518 08008KT 9999 SCT010 BKN017 TX10/2510Z TN05/2503Z 
     TEMPO 2418/2422 VRB04KT 
     BECMG 2422/2424 17010KT SCT005 
     BECMG 2504/2506 19018G28KT SCT015
       
UBBG 241730Z 10005KT 9999 FEW100 06/04 Q1025 R12/CLRD// NOSIG
TAF UBBG 241700Z 2418/2518 VRB04KT 6000 SCT010 BKN060 TX12/2512Z TN04/2503Z 
     TEMPO 2420/2422 3000 BR SCT007 
     TEMPO 2422/2505 0800 FG VV002
       
UBBL 241700Z 00000KT 9999 OVC014 08/06 Q1029 R33/CLRD// RMK MT OP
TAF UBBL 241713Z 2418/2518 VRB04KT 8000 BKN010 BKN020 TX11/2510Z TN05/2503Z 
     TEMPO 2418/2506 2000 BR BKN005
       
UBBN 241730Z 13006KT 9999 FEW100 07/M02 Q1020 R14R/CLRD// NOSIG RMK MT OP QFE690
TAF UBBN 241701Z 2418/2518 VRB04KT 9999 FEW050 SCT100 TX15/2512Z TN03/2503Z 
     TEMPO 2418/2423 10010KT 
     TEMPO 2500/2506 03006KT
       
UBBQ 241700Z 14005KT 9999 SCT010 OVC025 06/04 Q1026 R34/////// NOSIG RMK MT OBSC
TAF UBBQ 241710Z 2418/2518 14006KT 8000 SCT010 BKN030 TX09/2510Z TN03/2503Z 
     TEMPO 2418/2504 3000 -RA BR BKN007 OVC020
       
UBBY 241700Z 15010KT 9999 SCT050 07/04 Q1028 R33/////// NOSIG RMK MT OP
TAF UBBY 241700Z 2418/2503 14008KT 6000 SCT040 SCT100
       
UBEE 241500Z 14008KT 9999 BKN030 10/05 Q1026 R30/CLRD// NOSIG
TAF UBEE 241400Z 2415/2424 13010KT 9999 SCT010 BKN030
       
UBBB 241730Z 06003KT 9999 OVC017 06/03 Q1028 R88/D NOSIG
TAF UBBB 241706Z 2418/2518 08008KT 9999 SCT010 BKN017 TX10/2510Z TN05/2503Z 
     TEMPO 2418/2422 VRB04KT 
     BECMG 2422/2424 17010KT SCT005 
     BECMG 2504/2506 19018G28KT SCT015
       
UBBG 241730Z 10005KT 9999 FEW100 06/04 Q1025 R12/CLRD// NOSIG
TAF UBBG 241700Z 2418/2518 VRB04KT 6000 SCT010 BKN060 TX12/2512Z TN04/2503Z 
     TEMPO 2420/2422 3000 BR SCT007 
     TEMPO 2422/2505 0800 FG VV002